sensor_id;sensor_type;location;lat;lon;timestamp;P1;durP1;ratioP1;P2;durP2;ratioP2
40793;SDS011;26502;51.886;15.604;2023-12-04T00:02:12;68.40;;;33.70;;
40793;SDS011;26502;51.886;15.604;2023-12-04T00:07:38;75.30;;;35.90;;
40793;SDS011;26502;51.886;15.604;2023-12-04T00:13:04;72.60;;;34.60;;
40793;SDS011;26502;51.886;15.604;2023-12-04T00:18:31;83.90;;;39.20;;
40793;SDS011;26502;51.886;15.604;2023-12-04T00:23:57;79.50;;;37.10;;
40793;SDS011;26502;51.886;15.604;2023-12-04T00:29:23;92.80;;;41.80;;
40793;SDS011;26502;51.886;15.604;2023-12-04T00:34:50;70.00;;;33.90;;
40793;SDS011;26502;51.886;15.604;2023-12-04T00:40:16;74.10;;;36.00;;
40793;SDS011;26502;51.886;15.604;2023-12-04T00:45:43;72.30;;;33.40;;
40793;SDS011;26502;51.886;15.604;2023-12-04T00:51:09;78.40;;;35.60;;
40793;SDS011;26502;51.886;15.604;2023-12-04T00:56:35;66.70;;;29.80;;
40793;SDS011;26502;51.886;15.604;2023-12-04T01:02:04;82.20;;;35.60;;
40793;SDS011;26502;51.886;15.604;2023-12-04T01:07:31;82.90;;;35.80;;
40793;SDS011;26502;51.886;15.604;2023-12-04T01:12:58;69.30;;;31.20;;
40793;SDS011;26502;51.886;15.604;2023-12-04T01:18:24;71.90;;;31.20;;
40793;SDS011;26502;51.886;15.604;2023-12-04T01:23:50;65.30;;;28.80;;
40793;SDS011;26502;51.886;15.604;2023-12-04T01:29:16;74.70;;;33.00;;
40793;SDS011;26502;51.886;15.604;2023-12-04T01:34:42;90.00;;;38.40;;
40793;SDS011;26502;51.886;15.604;2023-12-04T01:40:09;110.50;;;42.30;;
40793;SDS011;26502;51.886;15.604;2023-12-04T01:45:36;114.20;;;43.30;;
40793;SDS011;26502;51.886;15.604;2023-12-04T01:51:03;95.80;;;40.20;;
40793;SDS011;26502;51.886;15.604;2023-12-04T01:56:34;119.30;;;43.90;;
40793;SDS011;26502;51.886;15.604;2023-12-04T02:02:03;121.00;;;46.80;;
40793;SDS011;26502;51.886;15.604;2023-12-04T02:07:29;111.40;;;46.20;;
40793;SDS011;26502;51.886;15.604;2023-12-04T02:12:57;106.30;;;42.40;;
40793;SDS011;26502;51.886;15.604;2023-12-04T02:18:23;84.30;;;35.70;;
40793;SDS011;26502;51.886;15.604;2023-12-04T02:23:50;81.50;;;34.70;;
40793;SDS011;26502;51.886;15.604;2023-12-04T02:29:19;76.80;;;30.10;;
40793;SDS011;26502;51.886;15.604;2023-12-04T02:34:48;70.10;;;31.70;;
40793;SDS011;26502;51.886;15.604;2023-12-04T02:40:16;68.70;;;30.30;;
40793;SDS011;26502;51.886;15.604;2023-12-04T02:45:43;66.20;;;27.20;;
40793;SDS011;26502;51.886;15.604;2023-12-04T02:51:09;62.70;;;27.70;;
40793;SDS011;26502;51.886;15.604;2023-12-04T02:56:36;56.20;;;24.70;;
40793;SDS011;26502;51.886;15.604;2023-12-04T03:02:02;51.70;;;23.20;;
40793;SDS011;26502;51.886;15.604;2023-12-04T03:07:30;53.60;;;23.40;;
40793;SDS011;26502;51.886;15.604;2023-12-04T03:12:56;58.10;;;25.80;;
40793;SDS011;26502;51.886;15.604;2023-12-04T03:18:22;73.00;;;28.70;;
40793;SDS011;26502;51.886;15.604;2023-12-04T03:23:49;87.60;;;32.40;;
40793;SDS011;26502;51.886;15.604;2023-12-04T03:29:15;93.00;;;36.00;;
40793;SDS011;26502;51.886;15.604;2023-12-04T03:34:41;79.60;;;32.20;;
40793;SDS011;26502;51.886;15.604;2023-12-04T03:40:08;79.90;;;30.50;;
40793;SDS011;26502;51.886;15.604;2023-12-04T03:45:35;66.40;;;28.40;;
40793;SDS011;26502;51.886;15.604;2023-12-04T03:51:01;54.30;;;23.50;;
40793;SDS011;26502;51.886;15.604;2023-12-04T03:56:28;60.30;;;26.20;;
40793;SDS011;26502;51.886;15.604;2023-12-04T04:01:54;47.00;;;20.70;;
40793;SDS011;26502;51.886;15.604;2023-12-04T04:07:21;54.40;;;24.20;;
40793;SDS011;26502;51.886;15.604;2023-12-04T04:12:49;51.10;;;22.00;;
40793;SDS011;26502;51.886;15.604;2023-12-04T04:18:16;52.60;;;22.70;;
40793;SDS011;26502;51.886;15.604;2023-12-04T04:23:42;43.60;;;20.30;;
40793;SDS011;26502;51.886;15.604;2023-12-04T04:29:09;47.60;;;22.60;;
40793;SDS011;26502;51.886;15.604;2023-12-04T04:34:37;47.30;;;20.30;;
40793;SDS011;26502;51.886;15.604;2023-12-04T04:40:03;43.80;;;20.50;;
40793;SDS011;26502;51.886;15.604;2023-12-04T04:45:30;45.50;;;20.00;;
40793;SDS011;26502;51.886;15.604;2023-12-04T04:50:56;50.40;;;20.90;;
40793;SDS011;26502;51.886;15.604;2023-12-04T04:56:23;42.70;;;20.30;;
40793;SDS011;26502;51.886;15.604;2023-12-04T05:01:49;44.80;;;20.50;;
40793;SDS011;26502;51.886;15.604;2023-12-04T05:07:17;38.10;;;18.60;;
40793;SDS011;26502;51.886;15.604;2023-12-04T05:12:43;42.90;;;19.10;;
40793;SDS011;26502;51.886;15.604;2023-12-04T05:18:09;35.60;;;18.20;;
40793;SDS011;26502;51.886;15.604;2023-12-04T05:23:35;37.70;;;17.50;;
40793;SDS011;26502;51.886;15.604;2023-12-04T05:29:01;37.90;;;18.50;;
40793;SDS011;26502;51.886;15.604;2023-12-04T05:34:28;35.10;;;18.30;;
40793;SDS011;26502;51.886;15.604;2023-12-04T05:39:54;38.20;;;17.60;;
40793;SDS011;26502;51.886;15.604;2023-12-04T05:45:20;36.00;;;17.00;;
40793;SDS011;26502;51.886;15.604;2023-12-04T05:50:47;39.80;;;18.40;;
40793;SDS011;26502;51.886;15.604;2023-12-04T05:56:13;41.40;;;17.90;;
40793;SDS011;26502;51.886;15.604;2023-12-04T06:01:39;38.30;;;17.40;;
40793;SDS011;26502;51.886;15.604;2023-12-04T06:07:05;40.40;;;17.70;;
40793;SDS011;26502;51.886;15.604;2023-12-04T06:12:32;34.20;;;17.20;;
40793;SDS011;26502;51.886;15.604;2023-12-04T06:17:58;37.00;;;16.70;;
40793;SDS011;26502;51.886;15.604;2023-12-04T06:23:25;37.10;;;17.50;;
40793;SDS011;26502;51.886;15.604;2023-12-04T06:28:52;37.30;;;16.10;;
40793;SDS011;26502;51.886;15.604;2023-12-04T06:34:19;37.70;;;15.60;;
40793;SDS011;26502;51.886;15.604;2023-12-04T06:39:46;33.60;;;15.40;;
40793;SDS011;26502;51.886;15.604;2023-12-04T06:45:14;36.50;;;16.60;;
40793;SDS011;26502;51.886;15.604;2023-12-04T06:50:42;40.20;;;16.30;;
40793;SDS011;26502;51.886;15.604;2023-12-04T06:56:10;40.50;;;18.40;;
40793;SDS011;26502;51.886;15.604;2023-12-04T07:01:37;39.30;;;17.60;;
40793;SDS011;26502;51.886;15.604;2023-12-04T07:07:05;36.10;;;16.10;;
40793;SDS011;26502;51.886;15.604;2023-12-04T07:12:32;39.50;;;17.70;;
40793;SDS011;26502;51.886;15.604;2023-12-04T07:17:58;41.60;;;18.50;;
40793;SDS011;26502;51.886;15.604;2023-12-04T07:23:24;36.80;;;16.30;;
40793;SDS011;26502;51.886;15.604;2023-12-04T07:28:51;37.20;;;17.00;;
40793;SDS011;26502;51.886;15.604;2023-12-04T07:34:17;35.20;;;16.30;;
40793;SDS011;26502;51.886;15.604;2023-12-04T07:39:44;38.90;;;17.40;;
40793;SDS011;26502;51.886;15.604;2023-12-04T07:45:11;37.70;;;17.70;;
40793;SDS011;26502;51.886;15.604;2023-12-04T07:50:38;37.60;;;17.50;;
40793;SDS011;26502;51.886;15.604;2023-12-04T07:56:05;40.30;;;18.00;;
40793;SDS011;26502;51.886;15.604;2023-12-04T08:01:33;36.60;;;18.80;;
40793;SDS011;26502;51.886;15.604;2023-12-04T08:07:02;35.40;;;17.10;;
40793;SDS011;26502;51.886;15.604;2023-12-04T08:12:28;39.80;;;18.70;;
40793;SDS011;26502;51.886;15.604;2023-12-04T08:17:54;39.10;;;18.80;;
40793;SDS011;26502;51.886;15.604;2023-12-04T08:23:21;36.70;;;18.30;;
40793;SDS011;26502;51.886;15.604;2023-12-04T08:28:47;35.00;;;17.20;;
40793;SDS011;26502;51.886;15.604;2023-12-04T08:34:13;39.00;;;18.40;;
40793;SDS011;26502;51.886;15.604;2023-12-04T08:39:39;36.80;;;18.30;;
40793;SDS011;26502;51.886;15.604;2023-12-04T08:45:06;37.60;;;17.70;;
40793;SDS011;26502;51.886;15.604;2023-12-04T08:50:34;38.20;;;17.70;;
40793;SDS011;26502;51.886;15.604;2023-12-04T08:56:00;38.00;;;17.70;;
40793;SDS011;26502;51.886;15.604;2023-12-04T09:01:27;38.50;;;18.30;;
40793;SDS011;26502;51.886;15.604;2023-12-04T09:06:53;36.70;;;19.00;;
40793;SDS011;26502;51.886;15.604;2023-12-04T09:12:20;47.60;;;21.60;;
40793;SDS011;26502;51.886;15.604;2023-12-04T09:17:46;41.00;;;21.50;;
40793;SDS011;26502;51.886;15.604;2023-12-04T09:23:13;48.90;;;24.50;;
40793;SDS011;26502;51.886;15.604;2023-12-04T09:28:39;44.70;;;21.20;;
40793;SDS011;26502;51.886;15.604;2023-12-04T09:34:05;55.40;;;25.70;;
40793;SDS011;26502;51.886;15.604;2023-12-04T09:39:31;55.10;;;26.10;;
40793;SDS011;26502;51.886;15.604;2023-12-04T09:44:59;54.10;;;27.20;;
40793;SDS011;26502;51.886;15.604;2023-12-04T09:50:26;49.10;;;26.00;;
40793;SDS011;26502;51.886;15.604;2023-12-04T09:55:52;43.40;;;23.90;;
40793;SDS011;26502;51.886;15.604;2023-12-04T10:01:21;48.90;;;25.30;;
40793;SDS011;26502;51.886;15.604;2023-12-04T10:06:48;54.20;;;26.40;;
40793;SDS011;26502;51.886;15.604;2023-12-04T10:12:15;55.20;;;27.20;;
40793;SDS011;26502;51.886;15.604;2023-12-04T10:17:45;47.50;;;25.80;;
40793;SDS011;26502;51.886;15.604;2023-12-04T10:23:11;55.80;;;26.60;;
40793;SDS011;26502;51.886;15.604;2023-12-04T10:28:38;48.80;;;24.80;;
40793;SDS011;26502;51.886;15.604;2023-12-04T10:34:04;55.60;;;27.70;;
40793;SDS011;26502;51.886;15.604;2023-12-04T10:39:32;61.10;;;29.50;;
40793;SDS011;26502;51.886;15.604;2023-12-04T10:45:11;63.80;;;28.80;;
40793;SDS011;26502;51.886;15.604;2023-12-04T10:50:38;65.10;;;31.30;;
40793;SDS011;26502;51.886;15.604;2023-12-04T10:56:07;64.30;;;31.40;;
40793;SDS011;26502;51.886;15.604;2023-12-04T11:01:35;63.80;;;31.70;;
40793;SDS011;26502;51.886;15.604;2023-12-04T11:07:03;67.30;;;32.40;;
40793;SDS011;26502;51.886;15.604;2023-12-04T11:12:32;63.40;;;31.50;;
40793;SDS011;26502;51.886;15.604;2023-12-04T11:18:00;56.60;;;28.70;;
40793;SDS011;26502;51.886;15.604;2023-12-04T11:23:26;56.80;;;29.00;;
40793;SDS011;26502;51.886;15.604;2023-12-04T11:28:54;53.80;;;28.80;;
40793;SDS011;26502;51.886;15.604;2023-12-04T11:34:21;56.40;;;29.00;;
40793;SDS011;26502;51.886;15.604;2023-12-04T11:39:49;54.90;;;28.20;;
40793;SDS011;26502;51.886;15.604;2023-12-04T11:45:20;53.50;;;27.40;;
40793;SDS011;26502;51.886;15.604;2023-12-04T11:50:46;51.40;;;26.60;;
40793;SDS011;26502;51.886;15.604;2023-12-04T11:56:15;51.00;;;27.70;;
40793;SDS011;26502;51.886;15.604;2023-12-04T12:01:41;49.60;;;27.10;;
40793;SDS011;26502;51.886;15.604;2023-12-04T12:07:16;48.50;;;27.10;;
40793;SDS011;26502;51.886;15.604;2023-12-04T12:12:43;56.30;;;28.40;;
40793;SDS011;26502;51.886;15.604;2023-12-04T12:18:10;55.30;;;28.40;;
40793;SDS011;26502;51.886;15.604;2023-12-04T12:23:36;59.40;;;29.40;;
40793;SDS011;26502;51.886;15.604;2023-12-04T12:29:02;52.50;;;28.50;;
40793;SDS011;26502;51.886;15.604;2023-12-04T12:34:29;48.00;;;25.60;;
40793;SDS011;26502;51.886;15.604;2023-12-04T12:39:58;50.80;;;25.70;;
40793;SDS011;26502;51.886;15.604;2023-12-04T12:45:28;59.40;;;32.40;;
40793;SDS011;26502;51.886;15.604;2023-12-04T12:50:54;53.10;;;29.00;;
40793;SDS011;26502;51.886;15.604;2023-12-04T12:56:20;53.80;;;29.40;;
40793;SDS011;26502;51.886;15.604;2023-12-04T13:01:48;50.30;;;27.00;;
40793;SDS011;26502;51.886;15.604;2023-12-04T13:07:15;58.30;;;31.70;;
40793;SDS011;26502;51.886;15.604;2023-12-04T13:12:42;52.30;;;28.80;;
40793;SDS011;26502;51.886;15.604;2023-12-04T13:18:08;55.20;;;29.00;;
40793;SDS011;26502;51.886;15.604;2023-12-04T13:23:35;54.70;;;30.00;;
40793;SDS011;26502;51.886;15.604;2023-12-04T13:29:02;48.60;;;26.80;;
40793;SDS011;26502;51.886;15.604;2023-12-04T13:34:29;52.00;;;27.40;;
40793;SDS011;26502;51.886;15.604;2023-12-04T13:39:55;48.80;;;26.80;;
40793;SDS011;26502;51.886;15.604;2023-12-04T13:45:24;45.70;;;25.60;;
40793;SDS011;26502;51.886;15.604;2023-12-04T13:50:51;54.90;;;29.30;;
40793;SDS011;26502;51.886;15.604;2023-12-04T13:56:17;48.50;;;26.10;;
40793;SDS011;26502;51.886;15.604;2023-12-04T14:02:04;51.00;;;27.00;;
40793;SDS011;26502;51.886;15.604;2023-12-04T14:07:35;51.00;;;27.60;;
40793;SDS011;26502;51.886;15.604;2023-12-04T14:13:09;45.60;;;24.60;;
40793;SDS011;26502;51.886;15.604;2023-12-04T14:18:35;52.00;;;26.30;;
40793;SDS011;26502;51.886;15.604;2023-12-04T14:24:02;50.20;;;25.70;;
40793;SDS011;26502;51.886;15.604;2023-12-04T14:29:28;61.70;;;28.40;;
40793;SDS011;26502;51.886;15.604;2023-12-04T14:34:55;47.70;;;25.30;;
40793;SDS011;26502;51.886;15.604;2023-12-04T14:40:21;49.30;;;26.30;;
40793;SDS011;26502;51.886;15.604;2023-12-04T14:45:48;48.00;;;25.00;;
40793;SDS011;26502;51.886;15.604;2023-12-04T14:51:14;48.20;;;25.40;;
40793;SDS011;26502;51.886;15.604;2023-12-04T14:56:42;50.90;;;26.10;;
40793;SDS011;26502;51.886;15.604;2023-12-04T15:02:22;50.20;;;25.40;;
40793;SDS011;26502;51.886;15.604;2023-12-04T15:08:22;52.10;;;26.50;;
40793;SDS011;26502;51.886;15.604;2023-12-04T15:14:03;52.00;;;26.10;;
40793;SDS011;26502;51.886;15.604;2023-12-04T15:19:39;45.50;;;24.00;;
40793;SDS011;26502;51.886;15.604;2023-12-04T15:25:21;45.00;;;24.10;;
40793;SDS011;26502;51.886;15.604;2023-12-04T15:30:48;41.10;;;23.20;;
40793;SDS011;26502;51.886;15.604;2023-12-04T15:36:14;48.00;;;24.80;;
40793;SDS011;26502;51.886;15.604;2023-12-04T15:41:45;46.90;;;24.90;;
40793;SDS011;26502;51.886;15.604;2023-12-04T15:47:11;44.10;;;23.40;;
40793;SDS011;26502;51.886;15.604;2023-12-04T15:52:39;43.30;;;23.70;;
40793;SDS011;26502;51.886;15.604;2023-12-04T15:58:06;44.10;;;24.20;;
40793;SDS011;26502;51.886;15.604;2023-12-04T16:03:33;44.30;;;24.40;;
40793;SDS011;26502;51.886;15.604;2023-12-04T16:09:01;43.60;;;22.70;;
40793;SDS011;26502;51.886;15.604;2023-12-04T16:14:28;44.00;;;21.10;;
40793;SDS011;26502;51.886;15.604;2023-12-04T16:19:54;44.10;;;24.20;;
40793;SDS011;26502;51.886;15.604;2023-12-04T16:25:23;47.50;;;24.10;;
40793;SDS011;26502;51.886;15.604;2023-12-04T16:30:49;46.70;;;24.60;;
40793;SDS011;26502;51.886;15.604;2023-12-04T16:36:19;43.80;;;23.30;;
40793;SDS011;26502;51.886;15.604;2023-12-04T16:41:45;45.90;;;24.50;;
40793;SDS011;26502;51.886;15.604;2023-12-04T16:47:12;46.60;;;25.10;;
40793;SDS011;26502;51.886;15.604;2023-12-04T16:52:39;44.10;;;25.60;;
40793;SDS011;26502;51.886;15.604;2023-12-04T16:58:05;45.50;;;24.20;;
40793;SDS011;26502;51.886;15.604;2023-12-04T17:03:33;49.40;;;26.30;;
40793;SDS011;26502;51.886;15.604;2023-12-04T17:08:59;48.30;;;27.10;;
40793;SDS011;26502;51.886;15.604;2023-12-04T17:14:27;51.20;;;26.40;;
40793;SDS011;26502;51.886;15.604;2023-12-04T17:19:53;51.50;;;28.20;;
40793;SDS011;26502;51.886;15.604;2023-12-04T17:25:20;49.90;;;27.90;;
40793;SDS011;26502;51.886;15.604;2023-12-04T17:30:48;52.80;;;26.90;;
40793;SDS011;26502;51.886;15.604;2023-12-04T17:36:14;53.80;;;29.00;;
40793;SDS011;26502;51.886;15.604;2023-12-04T17:41:41;60.10;;;29.90;;
40793;SDS011;26502;51.886;15.604;2023-12-04T17:47:08;55.80;;;27.90;;
40793;SDS011;26502;51.886;15.604;2023-12-04T17:52:35;50.10;;;26.50;;
40793;SDS011;26502;51.886;15.604;2023-12-04T17:58:03;47.30;;;24.80;;
40793;SDS011;26502;51.886;15.604;2023-12-04T18:03:30;45.10;;;24.70;;
40793;SDS011;26502;51.886;15.604;2023-12-04T18:08:58;45.10;;;25.00;;
40793;SDS011;26502;51.886;15.604;2023-12-04T18:14:25;48.90;;;24.90;;
40793;SDS011;26502;51.886;15.604;2023-12-04T18:19:51;47.50;;;26.00;;
40793;SDS011;26502;51.886;15.604;2023-12-04T18:25:18;49.90;;;25.80;;
40793;SDS011;26502;51.886;15.604;2023-12-04T18:30:46;50.80;;;25.30;;
40793;SDS011;26502;51.886;15.604;2023-12-04T18:36:14;51.50;;;25.90;;
40793;SDS011;26502;51.886;15.604;2023-12-04T18:41:41;50.70;;;27.90;;
40793;SDS011;26502;51.886;15.604;2023-12-04T18:47:08;50.70;;;25.80;;
40793;SDS011;26502;51.886;15.604;2023-12-04T18:52:37;49.80;;;26.90;;
40793;SDS011;26502;51.886;15.604;2023-12-04T18:58:04;54.50;;;27.90;;
40793;SDS011;26502;51.886;15.604;2023-12-04T19:03:36;63.70;;;32.40;;
40793;SDS011;26502;51.886;15.604;2023-12-04T19:09:02;70.20;;;33.30;;
40793;SDS011;26502;51.886;15.604;2023-12-04T19:14:33;69.20;;;35.80;;
40793;SDS011;26502;51.886;15.604;2023-12-04T19:20:02;71.80;;;34.40;;
40793;SDS011;26502;51.886;15.604;2023-12-04T19:30:58;74.50;;;35.80;;
40793;SDS011;26502;51.886;15.604;2023-12-04T19:36:27;59.80;;;29.30;;
40793;SDS011;26502;51.886;15.604;2023-12-04T19:41:53;57.90;;;30.80;;
40793;SDS011;26502;51.886;15.604;2023-12-04T19:47:19;50.00;;;24.70;;
40793;SDS011;26502;51.886;15.604;2023-12-04T19:52:46;46.70;;;25.30;;
40793;SDS011;26502;51.886;15.604;2023-12-04T19:58:13;53.90;;;27.30;;
40793;SDS011;26502;51.886;15.604;2023-12-04T20:03:41;58.70;;;28.70;;
40793;SDS011;26502;51.886;15.604;2023-12-04T20:09:08;49.70;;;27.50;;
40793;SDS011;26502;51.886;15.604;2023-12-04T20:14:34;47.10;;;25.20;;
40793;SDS011;26502;51.886;15.604;2023-12-04T20:20:01;52.70;;;28.70;;
40793;SDS011;26502;51.886;15.604;2023-12-04T20:25:28;51.50;;;27.50;;
40793;SDS011;26502;51.886;15.604;2023-12-04T20:30:54;59.60;;;30.60;;
40793;SDS011;26502;51.886;15.604;2023-12-04T20:36:21;52.50;;;27.40;;
40793;SDS011;26502;51.886;15.604;2023-12-04T20:41:48;56.50;;;29.60;;
40793;SDS011;26502;51.886;15.604;2023-12-04T20:47:14;63.80;;;31.30;;
40793;SDS011;26502;51.886;15.604;2023-12-04T20:52:40;60.50;;;32.60;;
40793;SDS011;26502;51.886;15.604;2023-12-04T20:58:06;52.40;;;27.30;;
40793;SDS011;26502;51.886;15.604;2023-12-04T21:03:32;54.40;;;27.80;;
40793;SDS011;26502;51.886;15.604;2023-12-04T21:08:59;53.60;;;29.40;;
40793;SDS011;26502;51.886;15.604;2023-12-04T21:14:27;52.80;;;27.70;;
40793;SDS011;26502;51.886;15.604;2023-12-04T21:19:53;49.00;;;26.90;;
40793;SDS011;26502;51.886;15.604;2023-12-04T21:25:19;56.80;;;30.00;;
40793;SDS011;26502;51.886;15.604;2023-12-04T21:30:46;55.70;;;28.90;;
40793;SDS011;26502;51.886;15.604;2023-12-04T21:36:14;51.90;;;27.90;;
40793;SDS011;26502;51.886;15.604;2023-12-04T21:41:40;53.70;;;28.40;;
40793;SDS011;26502;51.886;15.604;2023-12-04T21:47:06;57.00;;;30.50;;
40793;SDS011;26502;51.886;15.604;2023-12-04T21:52:32;53.70;;;29.60;;
40793;SDS011;26502;51.886;15.604;2023-12-04T21:57:59;51.90;;;27.90;;
40793;SDS011;26502;51.886;15.604;2023-12-04T22:03:25;61.60;;;29.20;;
40793;SDS011;26502;51.886;15.604;2023-12-04T22:08:51;53.40;;;29.00;;
40793;SDS011;26502;51.886;15.604;2023-12-04T22:14:21;60.60;;;32.40;;
40793;SDS011;26502;51.886;15.604;2023-12-04T22:19:49;49.40;;;24.80;;
40793;SDS011;26502;51.886;15.604;2023-12-04T22:25:15;54.10;;;27.00;;
40793;SDS011;26502;51.886;15.604;2023-12-04T22:30:42;55.40;;;28.70;;
40793;SDS011;26502;51.886;15.604;2023-12-04T22:36:09;49.90;;;26.30;;
40793;SDS011;26502;51.886;15.604;2023-12-04T22:41:36;54.40;;;27.10;;
40793;SDS011;26502;51.886;15.604;2023-12-04T22:47:02;53.10;;;27.20;;
40793;SDS011;26502;51.886;15.604;2023-12-04T22:52:28;51.80;;;26.80;;
40793;SDS011;26502;51.886;15.604;2023-12-04T22:57:55;53.00;;;26.80;;
40793;SDS011;26502;51.886;15.604;2023-12-04T23:03:22;53.20;;;27.70;;
40793;SDS011;26502;51.886;15.604;2023-12-04T23:08:49;53.70;;;28.30;;
40793;SDS011;26502;51.886;15.604;2023-12-04T23:14:16;51.40;;;27.70;;
40793;SDS011;26502;51.886;15.604;2023-12-04T23:19:43;51.40;;;26.50;;
40793;SDS011;26502;51.886;15.604;2023-12-04T23:25:09;53.50;;;28.80;;
40793;SDS011;26502;51.886;15.604;2023-12-04T23:30:35;54.10;;;28.40;;
40793;SDS011;26502;51.886;15.604;2023-12-04T23:36:05;51.30;;;26.80;;
40793;SDS011;26502;51.886;15.604;2023-12-04T23:41:33;56.90;;;27.40;;
40793;SDS011;26502;51.886;15.604;2023-12-04T23:47:00;54.40;;;28.50;;
40793;SDS011;26502;51.886;15.604;2023-12-04T23:52:26;53.50;;;27.70;;
40793;SDS011;26502;51.886;15.604;2023-12-04T23:57:52;45.70;;;26.30;;
